Michel A — TCQX8 — position and weather

sailwx.info

Track history (hours):
 
Tides and Currents Weather Stations Pressure Air Temp Water Temp Dewpoint Dewpoint Depression Visibility Wind Speed Wind Dir Waves Ship Positions

Michel A

Last reported at 2017-Oct-17 20:01 UTC. Time now 2017-Oct-18 11:24 UTC.
Position N 40°56' E 028°39'.

Length 184 m; draft 7.8 m.

Type: Ship. MMSI: 271001050.

Date/timePositionNaut miles runAvg speedWind from/ knotsBaromVisibWave heightAir tempDewpointWater temp
2017-Oct-17 20:01N 40°56' E 028°39'0 0.1
2017-Oct-17 19:30N 40°56' E 028°39'6 7.7
2017-Oct-17 18:41N 40°55' E 028°48'617.3
2017-Oct-17 18:21N 40°56' E 028°55'5911.8
2017-Oct-17 13:21N 41°55' E 029°04'515.1
2017-Oct-17 13:01N 42°00' E 029°04'3914.9
2017-Oct-17 10:24N 42°39' E 028°59'615.1
2017-Oct-17 09:59N 42°45' E 028°58'914.9
2017-Oct-17 09:25N 42°54' E 028°57'614.9
2017-Oct-17 09:00N 42°60' E 028°57'1415.0
2017-Oct-17 08:05N 43°14' E 028°55'115.4
2017-Oct-17 08:01N 43°15' E 028°55'815.1
2017-Oct-17 07:31N 43°22' E 028°54'714.9
2017-Oct-17 07:01N 43°30' E 028°53'714.9
2017-Oct-17 06:31N 43°37' E 028°52'714.6
2017-Oct-17 06:01N 43°44' E 028°51'714.3
2017-Oct-17 05:31N 43°51' E 028°50'714.4
2017-Oct-17 05:01N 43°59' E 028°49'714.5
2017-Oct-17 04:30N 44°05' E 028°43'5 9.2
2017-Oct-17 04:00N 44°09' E 028°40'1 2.3
2017-Oct-17 03:30N 44°09' E 028°39'0 0.0
2017-Oct-17 03:00N 44°09' E 028°39'0 0.0
2017-Oct-17 02:30N 44°09' E 028°39'0 0.0
2017-Oct-17 01:59N 44°09' E 028°39'0 0.0
2017-Oct-17 01:29N 44°09' E 028°39'0 0.0
2017-Oct-17 00:59N 44°09' E 028°39'0 0.0
2017-Oct-17 00:29N 44°09' E 028°39'0 0.0
2017-Oct-16 23:59N 44°09' E 028°39'0 0.0
2017-Oct-16 23:28N 44°09' E 028°39'0 0.0
2017-Oct-16 22:58N 44°09' E 028°39'0 0.0
2017-Oct-16 22:28N 44°09' E 028°39'0 0.0
2017-Oct-16 21:58N 44°09' E 028°39'0 0.0
2017-Oct-16 21:30N 44°09' E 028°39'0 0.0
2017-Oct-16 21:00N 44°09' E 028°39'0 0.0
2017-Oct-16 20:30N 44°09' E 028°39'0 0.0
2017-Oct-16 20:00N 44°09' E 028°39'0 0.0
2017-Oct-16 19:27N 44°09' E 028°39'0 0.0
2017-Oct-16 18:59N 44°09' E 028°39'0 0.0
2017-Oct-16 18:29N 44°09' E 028°39'0 0.0
2017-Oct-16 17:59N 44°09' E 028°39'0 0.0
2017-Oct-16 17:29N 44°09' E 028°39'0 0.0
2017-Oct-16 16:59N 44°09' E 028°39'0 0.0
2017-Oct-16 16:28N 44°09' E 028°39'0 0.0
2017-Oct-16 15:55N 44°09' E 028°39'0 0.0
2017-Oct-16 15:28N 44°09' E 028°39'0 0.0
2017-Oct-16 14:55N 44°09' E 028°39'0 0.0
2017-Oct-16 14:30N 44°09' E 028°39'0 0.0
2017-Oct-16 13:30N 44°09' E 028°39'0 0.0
2017-Oct-16 13:00N 44°09' E 028°39'0 0.0
2017-Oct-16 12:30N 44°09' E 028°39'0 0.0
2017-Oct-16 11:59N 44°09' E 028°39'0 0.0
2017-Oct-16 11:26N 44°09' E 028°39'0 0.0
2017-Oct-16 10:59N 44°09' E 028°39'0 0.0
2017-Oct-16 10:26N 44°09' E 028°39'0 0.0
2017-Oct-16 09:58N 44°09' E 028°39'0 0.0
2017-Oct-16 09:28N 44°09' E 028°39'0 0.0
2017-Oct-16 08:58N 44°09' E 028°39'0 0.0
2017-Oct-16 08:28N 44°09' E 028°39'0 0.0
2017-Oct-16 07:58N 44°09' E 028°39'0 0.0
2017-Oct-16 07:30N 44°09' E 028°39'0 0.0
2017-Oct-16 06:57N 44°09' E 028°39'0 0.0
2017-Oct-16 06:30N 44°09' E 028°39'0 0.0
2017-Oct-16 06:00N 44°09' E 028°39'0 0.0
2017-Oct-16 05:30N 44°09' E 028°39'0 0.0
2017-Oct-16 04:59N 44°09' E 028°39'0 0.0
2017-Oct-16 04:29N 44°09' E 028°39'0 0.0
2017-Oct-16 03:59N 44°09' E 028°39'0 0.0
2017-Oct-16 03:29N 44°09' E 028°39'0 0.0
2017-Oct-16 02:58N 44°09' E 028°39'0 0.0
2017-Oct-16 02:28N 44°09' E 028°39'0 0.0
2017-Oct-16 01:58N 44°09' E 028°39'0 0.0
2017-Oct-16 01:30N 44°09' E 028°39'0 0.8
2017-Oct-16 01:00N 44°09' E 028°39'1 2.8
2017-Oct-16 00:30N 44°08' E 028°41'3 6.6
2017-Oct-16 00:00N 44°05' E 028°43'3 6.5
2017-Oct-15 23:30N 44°03' E 028°46'3 6.8
2017-Oct-15 23:00N 44°00' E 028°49'5 9.6
2017-Oct-15 22:30N 43°56' E 028°52'4 8.6
2017-Oct-15 22:00N 43°52' E 028°51'612.3
2017-Oct-15 21:30N 43°45' E 028°52'612.3
2017-Oct-15 21:00N 43°39' E 028°52'612.2
2017-Oct-15 20:30N 43°33' E 028°54'612.2
2017-Oct-15 20:00N 43°27' E 028°55'612.4
2017-Oct-15 19:30N 43°21' E 028°56'1012.2
2017-Oct-15 18:42N 43°11' E 028°57'13011.6
2017-Oct-15 07:31N 41°01' E 029°00'2 9.4
2017-Oct-15 07:19N 40°59' E 028°60'7 9.3
2017-Oct-15 06:36N 40°54' E 028°55'210.0
2017-Oct-15 06:23N 40°53' E 028°53'4 9.5
2017-Oct-15 06:00N 40°51' E 028°48'27610.0
2017-Oct-14 02:28N 37°40' E 024°31'47012.7
2017-Oct-12 13:34N 36°17' E 014°52'1113.5
2017-Oct-12 12:44N 36°22' E 014°39'314.0
2017-Oct-12 12:30N 36°23' E 014°35'1813.9
2017-Oct-12 11:10N 36°27' E 014°13'313.9
2017-Oct-12 10:59N 36°27' E 014°10'1413.8
2017-Oct-12 09:57N 36°31' E 013°52'  
Track history (hours):
 
Tides and Currents Weather Stations Pressure Air Temp Water Temp Dewpoint Dewpoint Depression Visibility Wind Speed Wind Dir Waves Ship Positions

Michel A

Last reported at 2017-Oct-17 20:01 UTC. Time now 2017-Oct-18 11:24 UTC.
Position N 40°56' E 028°39'.

Length 184 m; draft 7.8 m.

Type: Ship. MMSI: 271001050.

Date/timePositionNaut miles runAvg speedWind from/ knotsBaromVisibWave heightAir tempDewpointWater temp
2017-Oct-17 20:01N 40°56' E 028°39'0 0.1
2017-Oct-17 19:30N 40°56' E 028°39'6 7.7
2017-Oct-17 18:41N 40°55' E 028°48'617.3
2017-Oct-17 18:21N 40°56' E 028°55'5911.8
2017-Oct-17 13:21N 41°55' E 029°04'515.1
2017-Oct-17 13:01N 42°00' E 029°04'3914.9
2017-Oct-17 10:24N 42°39' E 028°59'615.1
2017-Oct-17 09:59N 42°45' E 028°58'914.9
2017-Oct-17 09:25N 42°54' E 028°57'614.9
2017-Oct-17 09:00N 42°60' E 028°57'1415.0
2017-Oct-17 08:05N 43°14' E 028°55'115.4
2017-Oct-17 08:01N 43°15' E 028°55'815.1
2017-Oct-17 07:31N 43°22' E 028°54'714.9
2017-Oct-17 07:01N 43°30' E 028°53'714.9
2017-Oct-17 06:31N 43°37' E 028°52'714.6
2017-Oct-17 06:01N 43°44' E 028°51'714.3
2017-Oct-17 05:31N 43°51' E 028°50'714.4
2017-Oct-17 05:01N 43°59' E 028°49'714.5
2017-Oct-17 04:30N 44°05' E 028°43'5 9.2
2017-Oct-17 04:00N 44°09' E 028°40'1 2.3
2017-Oct-17 03:30N 44°09' E 028°39'0 0.0
2017-Oct-17 03:00N 44°09' E 028°39'0 0.0
2017-Oct-17 02:30N 44°09' E 028°39'0 0.0
2017-Oct-17 01:59N 44°09' E 028°39'0 0.0
2017-Oct-17 01:29N 44°09' E 028°39'0 0.0
2017-Oct-17 00:59N 44°09' E 028°39'0 0.0
2017-Oct-17 00:29N 44°09' E 028°39'0 0.0
2017-Oct-16 23:59N 44°09' E 028°39'0 0.0
2017-Oct-16 23:28N 44°09' E 028°39'0 0.0
2017-Oct-16 22:58N 44°09' E 028°39'0 0.0
2017-Oct-16 22:28N 44°09' E 028°39'0 0.0
2017-Oct-16 21:58N 44°09' E 028°39'0 0.0
2017-Oct-16 21:30N 44°09' E 028°39'0 0.0
2017-Oct-16 21:00N 44°09' E 028°39'0 0.0
2017-Oct-16 20:30N 44°09' E 028°39'0 0.0
2017-Oct-16 20:00N 44°09' E 028°39'0 0.0
2017-Oct-16 19:27N 44°09' E 028°39'0 0.0
2017-Oct-16 18:59N 44°09' E 028°39'0 0.0
2017-Oct-16 18:29N 44°09' E 028°39'0 0.0
2017-Oct-16 17:59N 44°09' E 028°39'0 0.0
2017-Oct-16 17:29N 44°09' E 028°39'0 0.0
2017-Oct-16 16:59N 44°09' E 028°39'0 0.0
2017-Oct-16 16:28N 44°09' E 028°39'0 0.0
2017-Oct-16 15:55N 44°09' E 028°39'0 0.0
2017-Oct-16 15:28N 44°09' E 028°39'0 0.0
2017-Oct-16 14:55N 44°09' E 028°39'0 0.0
2017-Oct-16 14:30N 44°09' E 028°39'0 0.0
2017-Oct-16 13:30N 44°09' E 028°39'0 0.0
2017-Oct-16 13:00N 44°09' E 028°39'0 0.0
2017-Oct-16 12:30N 44°09' E 028°39'0 0.0
2017-Oct-16 11:59N 44°09' E 028°39'0 0.0
2017-Oct-16 11:26N 44°09' E 028°39'0 0.0
2017-Oct-16 10:59N 44°09' E 028°39'0 0.0
2017-Oct-16 10:26N 44°09' E 028°39'0 0.0
2017-Oct-16 09:58N 44°09' E 028°39'0 0.0
2017-Oct-16 09:28N 44°09' E 028°39'0 0.0
2017-Oct-16 08:58N 44°09' E 028°39'0 0.0
2017-Oct-16 08:28N 44°09' E 028°39'0 0.0
2017-Oct-16 07:58N 44°09' E 028°39'0 0.0
2017-Oct-16 07:30N 44°09' E 028°39'0 0.0
2017-Oct-16 06:57N 44°09' E 028°39'0 0.0
2017-Oct-16 06:30N 44°09' E 028°39'0 0.0
2017-Oct-16 06:00N 44°09' E 028°39'0 0.0
2017-Oct-16 05:30N 44°09' E 028°39'0 0.0
2017-Oct-16 04:59N 44°09' E 028°39'0 0.0
2017-Oct-16 04:29N 44°09' E 028°39'0 0.0
2017-Oct-16 03:59N 44°09' E 028°39'0 0.0
2017-Oct-16 03:29N 44°09' E 028°39'0 0.0
2017-Oct-16 02:58N 44°09' E 028°39'0 0.0
2017-Oct-16 02:28N 44°09' E 028°39'0 0.0
2017-Oct-16 01:58N 44°09' E 028°39'0 0.0
2017-Oct-16 01:30N 44°09' E 028°39'0 0.8
2017-Oct-16 01:00N 44°09' E 028°39'1 2.8
2017-Oct-16 00:30N 44°08' E 028°41'3 6.6
2017-Oct-16 00:00N 44°05' E 028°43'3 6.5
2017-Oct-15 23:30N 44°03' E 028°46'3 6.8
2017-Oct-15 23:00N 44°00' E 028°49'5 9.6
2017-Oct-15 22:30N 43°56' E 028°52'4 8.6
2017-Oct-15 22:00N 43°52' E 028°51'612.3
2017-Oct-15 21:30N 43°45' E 028°52'612.3
2017-Oct-15 21:00N 43°39' E 028°52'612.2
2017-Oct-15 20:30N 43°33' E 028°54'612.2
2017-Oct-15 20:00N 43°27' E 028°55'612.4
2017-Oct-15 19:30N 43°21' E 028°56'1012.2
2017-Oct-15 18:42N 43°11' E 028°57'13011.6
2017-Oct-15 07:31N 41°01' E 029°00'2 9.4
2017-Oct-15 07:19N 40°59' E 028°60'7 9.3
2017-Oct-15 06:36N 40°54' E 028°55'210.0
2017-Oct-15 06:23N 40°53' E 028°53'4 9.5
2017-Oct-15 06:00N 40°51' E 028°48'27610.0
2017-Oct-14 02:28N 37°40' E 024°31'47012.7
2017-Oct-12 13:34N 36°17' E 014°52'1113.5
2017-Oct-12 12:44N 36°22' E 014°39'314.0
2017-Oct-12 12:30N 36°23' E 014°35'1813.9
2017-Oct-12 11:10N 36°27' E 014°13'313.9
2017-Oct-12 10:59N 36°27' E 014°10'1413.8
2017-Oct-12 09:57N 36°31' E 013°52'  

Dump ship's entire track history